sensor_id;sensor_type;location;lat;lon;timestamp;pressure;altitude;pressure_sealevel;temperature;humidity
4981;BME280;2507;50.392;7.482;2023-05-20T00:01:14;101236.13;;;14.31;55.25
4981;BME280;2507;50.392;7.482;2023-05-20T00:03:40;101240.25;;;14.46;54.88
4981;BME280;2507;50.392;7.482;2023-05-20T00:06:05;101239.31;;;14.47;54.09
4981;BME280;2507;50.392;7.482;2023-05-20T00:08:30;101244.59;;;14.47;54.21
4981;BME280;2507;50.392;7.482;2023-05-20T00:10:56;101244.22;;;14.52;54.82
4981;BME280;2507;50.392;7.482;2023-05-20T00:13:21;101232.94;;;14.61;54.77
4981;BME280;2507;50.392;7.482;2023-05-20T00:15:48;101229.94;;;14.54;55.76
4981;BME280;2507;50.392;7.482;2023-05-20T00:18:13;101223.81;;;14.54;56.22
4981;BME280;2507;50.392;7.482;2023-05-20T00:20:38;101219.09;;;14.35;56.08
4981;BME280;2507;50.392;7.482;2023-05-20T00:23:04;101226.16;;;14.23;56.31
4981;BME280;2507;50.392;7.482;2023-05-20T00:25:29;101224.88;;;14.40;56.56
4981;BME280;2507;50.392;7.482;2023-05-20T00:27:56;101219.00;;;14.48;56.99
4981;BME280;2507;50.392;7.482;2023-05-20T00:30:21;101220.91;;;14.46;56.34
4981;BME280;2507;50.392;7.482;2023-05-20T00:32:47;101219.38;;;14.54;56.07
4981;BME280;2507;50.392;7.482;2023-05-20T00:35:12;101222.59;;;14.47;56.08
4981;BME280;2507;50.392;7.482;2023-05-20T00:37:38;101216.47;;;14.35;56.59
4981;BME280;2507;50.392;7.482;2023-05-20T00:40:03;101217.44;;;14.34;56.48
4981;BME280;2507;50.392;7.482;2023-05-20T00:42:30;101215.59;;;14.23;56.62
4981;BME280;2507;50.392;7.482;2023-05-20T00:44:55;101214.50;;;14.26;57.31
4981;BME280;2507;50.392;7.482;2023-05-20T00:47:28;101210.25;;;14.36;56.54
4981;BME280;2507;50.392;7.482;2023-05-20T00:49:55;101215.28;;;14.39;56.60
4981;BME280;2507;50.392;7.482;2023-05-20T00:52:21;101210.00;;;14.39;56.53
4981;BME280;2507;50.392;7.482;2023-05-20T00:54:48;101207.63;;;14.47;56.50
4981;BME280;2507;50.392;7.482;2023-05-20T00:57:14;101215.53;;;14.47;56.23
4981;BME280;2507;50.392;7.482;2023-05-20T00:59:40;101207.50;;;14.49;56.42
4981;BME280;2507;50.392;7.482;2023-05-20T01:02:09;101205.66;;;14.49;56.27
4981;BME280;2507;50.392;7.482;2023-05-20T01:04:35;101205.19;;;14.55;56.16
4981;BME280;2507;50.392;7.482;2023-05-20T01:07:03;101206.41;;;14.51;56.12
4981;BME280;2507;50.392;7.482;2023-05-20T01:09:33;101193.56;;;14.47;56.19
4981;BME280;2507;50.392;7.482;2023-05-20T01:12:02;101199.78;;;14.46;56.43
4981;BME280;2507;50.392;7.482;2023-05-20T01:14:35;101197.53;;;14.52;56.10
4981;BME280;2507;50.392;7.482;2023-05-20T01:17:01;101195.63;;;14.54;56.13
4981;BME280;2507;50.392;7.482;2023-05-20T01:19:40;101190.53;;;14.51;56.52
4981;BME280;2507;50.392;7.482;2023-05-20T01:22:09;101188.16;;;14.59;56.47
4981;BME280;2507;50.392;7.482;2023-05-20T01:24:45;101197.03;;;14.58;56.51
4981;BME280;2507;50.392;7.482;2023-05-20T01:27:18;101194.03;;;14.52;56.78
4981;BME280;2507;50.392;7.482;2023-05-20T01:29:45;101195.09;;;14.49;56.99
4981;BME280;2507;50.392;7.482;2023-05-20T01:32:28;101195.00;;;14.51;57.01
4981;BME280;2507;50.392;7.482;2023-05-20T01:35:01;101195.13;;;14.60;56.96
4981;BME280;2507;50.392;7.482;2023-05-20T01:37:28;101192.00;;;14.66;56.87
4981;BME280;2507;50.392;7.482;2023-05-20T01:39:55;101187.09;;;14.62;56.64
4981;BME280;2507;50.392;7.482;2023-05-20T01:42:22;101196.44;;;14.66;56.56
4981;BME280;2507;50.392;7.482;2023-05-20T01:44:49;101192.47;;;14.82;56.25
4981;BME280;2507;50.392;7.482;2023-05-20T01:47:14;101188.88;;;14.72;56.35
4981;BME280;2507;50.392;7.482;2023-05-20T01:49:39;101187.31;;;14.59;56.81
4981;BME280;2507;50.392;7.482;2023-05-20T01:52:05;101178.66;;;14.57;56.91
4981;BME280;2507;50.392;7.482;2023-05-20T01:54:31;101179.50;;;14.68;56.37
4981;BME280;2507;50.392;7.482;2023-05-20T01:56:56;101181.19;;;14.69;56.22
4981;BME280;2507;50.392;7.482;2023-05-20T01:59:21;101177.59;;;14.70;56.53
4981;BME280;2507;50.392;7.482;2023-05-20T02:01:46;101183.00;;;14.69;56.31
4981;BME280;2507;50.392;7.482;2023-05-20T02:04:12;101187.69;;;14.54;56.75
4981;BME280;2507;50.392;7.482;2023-05-20T02:06:37;101181.81;;;14.51;56.88
4981;BME280;2507;50.392;7.482;2023-05-20T02:09:02;101183.00;;;14.58;56.74
4981;BME280;2507;50.392;7.482;2023-05-20T02:11:28;101186.00;;;14.53;56.87
4981;BME280;2507;50.392;7.482;2023-05-20T02:13:53;101186.81;;;14.43;57.19
4981;BME280;2507;50.392;7.482;2023-05-20T02:16:18;101182.72;;;14.39;57.75
4981;BME280;2507;50.392;7.482;2023-05-20T02:18:44;101189.47;;;14.43;57.46
4981;BME280;2507;50.392;7.482;2023-05-20T02:21:09;101189.56;;;14.30;57.97
4981;BME280;2507;50.392;7.482;2023-05-20T02:23:34;101184.28;;;14.30;58.12
4981;BME280;2507;50.392;7.482;2023-05-20T02:26:00;101174.41;;;14.21;58.27
4981;BME280;2507;50.392;7.482;2023-05-20T02:28:26;101181.56;;;14.08;58.68
4981;BME280;2507;50.392;7.482;2023-05-20T02:30:51;101180.13;;;14.04;58.76
4981;BME280;2507;50.392;7.482;2023-05-20T02:33:20;101180.38;;;14.01;59.38
4981;BME280;2507;50.392;7.482;2023-05-20T02:35:45;101179.50;;;14.00;58.95
4981;BME280;2507;50.392;7.482;2023-05-20T02:38:11;101173.28;;;14.01;58.97
4981;BME280;2507;50.392;7.482;2023-05-20T02:40:37;101174.56;;;13.85;59.68
4981;BME280;2507;50.392;7.482;2023-05-20T02:43:03;101170.19;;;13.73;60.02
4981;BME280;2507;50.392;7.482;2023-05-20T02:45:29;101173.50;;;13.64;60.50
4981;BME280;2507;50.392;7.482;2023-05-20T02:47:54;101165.34;;;13.56;60.69
4981;BME280;2507;50.392;7.482;2023-05-20T02:50:19;101165.97;;;13.59;60.78
4981;BME280;2507;50.392;7.482;2023-05-20T02:52:45;101168.44;;;13.50;61.34
4981;BME280;2507;50.392;7.482;2023-05-20T02:55:11;101168.97;;;13.42;61.38
4981;BME280;2507;50.392;7.482;2023-05-20T02:57:36;101166.47;;;13.41;61.68
4981;BME280;2507;50.392;7.482;2023-05-20T03:00:06;101166.88;;;13.47;61.57
4981;BME280;2507;50.392;7.482;2023-05-20T03:02:32;101169.94;;;13.41;61.52
4981;BME280;2507;50.392;7.482;2023-05-20T03:04:58;101157.72;;;13.40;61.85
4981;BME280;2507;50.392;7.482;2023-05-20T03:07:23;101168.94;;;13.31;62.25
4981;BME280;2507;50.392;7.482;2023-05-20T03:09:49;101161.38;;;13.26;62.46
4981;BME280;2507;50.392;7.482;2023-05-20T03:12:14;101163.59;;;13.20;62.49
4981;BME280;2507;50.392;7.482;2023-05-20T03:14:39;101171.41;;;13.21;62.68
4981;BME280;2507;50.392;7.482;2023-05-20T03:17:05;101176.44;;;13.24;62.66
4981;BME280;2507;50.392;7.482;2023-05-20T03:19:30;101173.94;;;13.23;62.83
4981;BME280;2507;50.392;7.482;2023-05-20T03:21:55;101172.34;;;13.20;63.01
4981;BME280;2507;50.392;7.482;2023-05-20T03:24:22;101174.06;;;13.21;62.95
4981;BME280;2507;50.392;7.482;2023-05-20T03:26:47;101168.88;;;13.20;63.39
4981;BME280;2507;50.392;7.482;2023-05-20T03:29:13;101174.72;;;13.12;63.67
4981;BME280;2507;50.392;7.482;2023-05-20T03:31:38;101181.22;;;13.19;63.30
4981;BME280;2507;50.392;7.482;2023-05-20T03:34:03;101185.34;;;13.11;63.53
4981;BME280;2507;50.392;7.482;2023-05-20T03:36:29;101182.81;;;13.09;63.38
4981;BME280;2507;50.392;7.482;2023-05-20T03:38:54;101178.63;;;13.07;63.67
4981;BME280;2507;50.392;7.482;2023-05-20T03:41:19;101181.59;;;13.02;63.83
4981;BME280;2507;50.392;7.482;2023-05-20T03:43:45;101178.28;;;13.11;63.69
4981;BME280;2507;50.392;7.482;2023-05-20T03:46:10;101177.56;;;13.09;63.49
4981;BME280;2507;50.392;7.482;2023-05-20T03:48:35;101176.88;;;13.18;63.51
4981;BME280;2507;50.392;7.482;2023-05-20T03:51:01;101168.66;;;13.23;63.13
4981;BME280;2507;50.392;7.482;2023-05-20T03:53:26;101170.22;;;13.25;63.61
4981;BME280;2507;50.392;7.482;2023-05-20T03:55:51;101161.06;;;13.42;63.02
4981;BME280;2507;50.392;7.482;2023-05-20T03:58:17;101172.22;;;13.46;62.53
4981;BME280;2507;50.392;7.482;2023-05-20T04:00:44;101178.91;;;13.39;62.99
4981;BME280;2507;50.392;7.482;2023-05-20T04:03:10;101171.97;;;13.38;62.97
4981;BME280;2507;50.392;7.482;2023-05-20T04:05:36;101178.59;;;13.43;62.97
4981;BME280;2507;50.392;7.482;2023-05-20T04:08:01;101175.66;;;13.59;62.88
4981;BME280;2507;50.392;7.482;2023-05-20T04:10:29;101181.06;;;13.57;62.82
4981;BME280;2507;50.392;7.482;2023-05-20T04:12:56;101178.78;;;13.64;62.70
4981;BME280;2507;50.392;7.482;2023-05-20T04:15:21;101174.94;;;13.57;62.88
4981;BME280;2507;50.392;7.482;2023-05-20T04:17:48;101174.09;;;13.56;62.78
4981;BME280;2507;50.392;7.482;2023-05-20T04:20:14;101178.41;;;13.57;62.77
4981;BME280;2507;50.392;7.482;2023-05-20T04:22:40;101184.47;;;13.70;63.00
4981;BME280;2507;50.392;7.482;2023-05-20T04:25:06;101181.47;;;14.20;61.85
4981;BME280;2507;50.392;7.482;2023-05-20T04:27:32;101179.25;;;14.82;60.19
4981;BME280;2507;50.392;7.482;2023-05-20T04:29:58;101170.81;;;15.10;58.34
4981;BME280;2507;50.392;7.482;2023-05-20T04:32:23;101170.25;;;15.07;57.94
4981;BME280;2507;50.392;7.482;2023-05-20T04:34:48;101174.81;;;14.83;58.81
4981;BME280;2507;50.392;7.482;2023-05-20T04:37:14;101169.81;;;14.69;59.20
4981;BME280;2507;50.392;7.482;2023-05-20T04:39:40;101179.50;;;14.57;59.53
4981;BME280;2507;50.392;7.482;2023-05-20T04:42:07;101167.38;;;14.55;59.79
4981;BME280;2507;50.392;7.482;2023-05-20T04:44:33;101167.38;;;14.55;60.26
4981;BME280;2507;50.392;7.482;2023-05-20T04:46:59;101173.25;;;14.58;60.05
4981;BME280;2507;50.392;7.482;2023-05-20T04:49:24;101168.69;;;14.49;60.17
4981;BME280;2507;50.392;7.482;2023-05-20T04:51:51;101170.03;;;14.66;59.81
4981;BME280;2507;50.392;7.482;2023-05-20T04:54:16;101174.22;;;14.68;60.26
4981;BME280;2507;50.392;7.482;2023-05-20T04:56:44;101175.69;;;14.72;59.81
4981;BME280;2507;50.392;7.482;2023-05-20T04:59:10;101176.41;;;14.85;59.47
4981;BME280;2507;50.392;7.482;2023-05-20T05:01:36;101165.75;;;15.07;59.16
4981;BME280;2507;50.392;7.482;2023-05-20T05:04:01;101170.81;;;15.21;58.32
4981;BME280;2507;50.392;7.482;2023-05-20T05:06:27;101169.25;;;15.19;58.00
4981;BME280;2507;50.392;7.482;2023-05-20T05:08:52;101155.19;;;15.07;58.48
4981;BME280;2507;50.392;7.482;2023-05-20T05:11:17;101147.75;;;15.12;58.95
4981;BME280;2507;50.392;7.482;2023-05-20T05:13:42;101155.66;;;15.23;58.22
4981;BME280;2507;50.392;7.482;2023-05-20T05:16:08;101151.78;;;15.27;58.35
4981;BME280;2507;50.392;7.482;2023-05-20T05:18:33;101159.81;;;15.48;58.27
4981;BME280;2507;50.392;7.482;2023-05-20T05:21:03;101159.63;;;15.61;58.04
4981;BME280;2507;50.392;7.482;2023-05-20T05:23:29;101153.97;;;15.86;57.56
4981;BME280;2507;50.392;7.482;2023-05-20T05:25:54;101150.09;;;15.90;57.15
4981;BME280;2507;50.392;7.482;2023-05-20T05:28:20;101146.59;;;16.10;56.50
4981;BME280;2507;50.392;7.482;2023-05-20T05:30:45;101146.59;;;16.10;56.29
4981;BME280;2507;50.392;7.482;2023-05-20T05:33:10;101148.53;;;16.08;56.41
4981;BME280;2507;50.392;7.482;2023-05-20T05:35:35;101154.09;;;15.84;57.23
4981;BME280;2507;50.392;7.482;2023-05-20T05:38:01;101151.13;;;15.78;57.44
4981;BME280;2507;50.392;7.482;2023-05-20T05:40:27;101143.78;;;15.81;57.86
4981;BME280;2507;50.392;7.482;2023-05-20T05:42:52;101150.09;;;15.90;57.94
4981;BME280;2507;50.392;7.482;2023-05-20T05:45:17;101150.91;;;16.11;57.36
4981;BME280;2507;50.392;7.482;2023-05-20T05:47:43;101142.38;;;16.28;56.76
4981;BME280;2507;50.392;7.482;2023-05-20T05:50:08;101146.59;;;16.61;55.79
4981;BME280;2507;50.392;7.482;2023-05-20T05:52:34;101163.88;;;16.85;55.35
4981;BME280;2507;50.392;7.482;2023-05-20T05:55:00;101149.09;;;16.92;55.07
4981;BME280;2507;50.392;7.482;2023-05-20T05:57:25;101139.59;;;16.90;55.51
4981;BME280;2507;50.392;7.482;2023-05-20T05:59:50;101143.50;;;16.95;55.05
4981;BME280;2507;50.392;7.482;2023-05-20T06:02:16;101156.25;;;17.20;54.22
4981;BME280;2507;50.392;7.482;2023-05-20T06:04:41;101142.91;;;17.79;53.25
4981;BME280;2507;50.392;7.482;2023-05-20T06:07:07;101139.22;;;18.09;52.52
4981;BME280;2507;50.392;7.482;2023-05-20T06:09:32;101138.25;;;18.00;52.73
4981;BME280;2507;50.392;7.482;2023-05-20T06:11:57;101147.59;;;18.14;52.14
4981;BME280;2507;50.392;7.482;2023-05-20T06:14:23;101140.97;;;18.37;52.28
4981;BME280;2507;50.392;7.482;2023-05-20T06:16:48;101138.16;;;18.75;50.41
4981;BME280;2507;50.392;7.482;2023-05-20T06:19:13;101140.06;;;18.65;51.07
4981;BME280;2507;50.392;7.482;2023-05-20T06:21:38;101130.38;;;18.64;51.16
4981;BME280;2507;50.392;7.482;2023-05-20T06:24:04;101130.19;;;18.48;51.68
4981;BME280;2507;50.392;7.482;2023-05-20T06:26:30;101132.97;;;18.37;52.36
4981;BME280;2507;50.392;7.482;2023-05-20T06:28:55;101132.63;;;18.69;51.07
4981;BME280;2507;50.392;7.482;2023-05-20T06:31:21;101131.38;;;18.17;51.40
4981;BME280;2507;50.392;7.482;2023-05-20T06:33:46;101127.94;;;17.88;52.97
4981;BME280;2507;50.392;7.482;2023-05-20T06:36:11;101113.94;;;17.95;53.19
4981;BME280;2507;50.392;7.482;2023-05-20T06:38:37;101117.88;;;17.91;53.72
4981;BME280;2507;50.392;7.482;2023-05-20T06:41:02;101116.59;;;18.05;53.09
4981;BME280;2507;50.392;7.482;2023-05-20T06:43:28;101115.66;;;17.87;53.14
4981;BME280;2507;50.392;7.482;2023-05-20T06:45:53;101107.31;;;18.18;52.42
4981;BME280;2507;50.392;7.482;2023-05-20T06:48:18;101107.59;;;18.62;52.10
4981;BME280;2507;50.392;7.482;2023-05-20T06:50:44;101104.94;;;18.62;51.12
4981;BME280;2507;50.392;7.482;2023-05-20T06:53:09;101101.28;;;18.63;51.15
4981;BME280;2507;50.392;7.482;2023-05-20T06:55:36;101099.69;;;18.97;51.37
4981;BME280;2507;50.392;7.482;2023-05-20T06:58:01;101100.16;;;19.27;50.53
4981;BME280;2507;50.392;7.482;2023-05-20T07:00:26;101105.88;;;19.68;48.73
4981;BME280;2507;50.392;7.482;2023-05-20T07:02:51;101104.94;;;20.02;48.89
4981;BME280;2507;50.392;7.482;2023-05-20T07:05:17;101104.53;;;20.74;47.13
4981;BME280;2507;50.392;7.482;2023-05-20T07:07:42;101096.53;;;20.82;45.75
4981;BME280;2507;50.392;7.482;2023-05-20T07:10:07;101091.53;;;20.87;45.87
4981;BME280;2507;50.392;7.482;2023-05-20T07:12:33;101092.69;;;21.51;44.55
4981;BME280;2507;50.392;7.482;2023-05-20T07:14:59;101096.94;;;22.24;42.89
4981;BME280;2507;50.392;7.482;2023-05-20T07:17:24;101093.78;;;23.51;40.78
4981;BME280;2507;50.392;7.482;2023-05-20T07:19:50;101082.41;;;25.24;37.66
4981;BME280;2507;50.392;7.482;2023-05-20T07:22:15;101079.09;;;26.60;34.96
4981;BME280;2507;50.392;7.482;2023-05-20T07:24:41;101083.72;;;28.18;32.29
4981;BME280;2507;50.392;7.482;2023-05-20T07:27:06;101072.91;;;29.51;30.72
4981;BME280;2507;50.392;7.482;2023-05-20T07:29:33;101068.88;;;28.97;30.83
4981;BME280;2507;50.392;7.482;2023-05-20T07:31:58;101077.16;;;29.02;30.87
4981;BME280;2507;50.392;7.482;2023-05-20T07:34:23;101082.50;;;29.78;30.08
4981;BME280;2507;50.392;7.482;2023-05-20T07:36:49;101065.78;;;29.56;30.29
4981;BME280;2507;50.392;7.482;2023-05-20T07:39:15;101077.41;;;30.78;28.80
4981;BME280;2507;50.392;7.482;2023-05-20T07:41:41;101063.31;;;30.58;28.30
4981;BME280;2507;50.392;7.482;2023-05-20T07:44:06;101054.78;;;29.51;30.17
4981;BME280;2507;50.392;7.482;2023-05-20T07:46:36;101065.63;;;28.82;31.37
4981;BME280;2507;50.392;7.482;2023-05-20T07:49:02;101061.56;;;28.67;31.24
4981;BME280;2507;50.392;7.482;2023-05-20T07:51:28;101056.75;;;27.92;31.60
4981;BME280;2507;50.392;7.482;2023-05-20T07:53:53;101050.88;;;27.10;33.62
4981;BME280;2507;50.392;7.482;2023-05-20T07:56:19;101045.94;;;27.20;32.80
4981;BME280;2507;50.392;7.482;2023-05-20T07:58:54;101043.03;;;27.21;32.86
4981;BME280;2507;50.392;7.482;2023-05-20T08:01:20;101038.28;;;27.23;32.89
4981;BME280;2507;50.392;7.482;2023-05-20T08:03:46;101038.88;;;27.25;33.04
4981;BME280;2507;50.392;7.482;2023-05-20T08:06:11;101034.84;;;26.29;34.02
4981;BME280;2507;50.392;7.482;2023-05-20T08:08:36;101037.75;;;26.34;34.47
4981;BME280;2507;50.392;7.482;2023-05-20T08:11:04;101041.78;;;27.17;33.59
4981;BME280;2507;50.392;7.482;2023-05-20T08:13:29;101037.66;;;27.80;32.29
4981;BME280;2507;50.392;7.482;2023-05-20T08:15:55;101038.50;;;27.61;33.39
4981;BME280;2507;50.392;7.482;2023-05-20T08:18:21;101034.75;;;27.82;32.77
4981;BME280;2507;50.392;7.482;2023-05-20T08:20:46;101036.47;;;25.89;35.71
4981;BME280;2507;50.392;7.482;2023-05-20T08:23:11;101032.19;;;24.53;37.96
4981;BME280;2507;50.392;7.482;2023-05-20T08:25:37;101041.06;;;24.03;39.24
4981;BME280;2507;50.392;7.482;2023-05-20T08:28:03;101032.72;;;24.13;39.34
4981;BME280;2507;50.392;7.482;2023-05-20T08:30:29;101037.69;;;23.50;40.99
4981;BME280;2507;50.392;7.482;2023-05-20T08:32:55;101028.09;;;24.21;39.84
4981;BME280;2507;50.392;7.482;2023-05-20T08:35:22;101030.56;;;23.19;43.12
4981;BME280;2507;50.392;7.482;2023-05-20T08:37:47;101029.69;;;22.35;43.00
4981;BME280;2507;50.392;7.482;2023-05-20T08:40:13;101028.66;;;22.44;44.82
4981;BME280;2507;50.392;7.482;2023-05-20T08:42:42;101020.41;;;22.15;45.67
4981;BME280;2507;50.392;7.482;2023-05-20T08:45:11;101017.97;;;22.05;45.07
4981;BME280;2507;50.392;7.482;2023-05-20T08:47:40;101022.78;;;22.49;46.70
4981;BME280;2507;50.392;7.482;2023-05-20T08:50:11;101023.47;;;23.04;43.05
4981;BME280;2507;50.392;7.482;2023-05-20T08:52:47;101032.09;;;22.91;45.04
4981;BME280;2507;50.392;7.482;2023-05-20T08:55:37;101012.63;;;22.75;46.36
4981;BME280;2507;50.392;7.482;2023-05-20T08:58:04;101014.19;;;23.74;42.79
4981;BME280;2507;50.392;7.482;2023-05-20T09:00:29;101008.47;;;24.36;42.04
4981;BME280;2507;50.392;7.482;2023-05-20T09:02:58;101004.16;;;24.05;41.59
4981;BME280;2507;50.392;7.482;2023-05-20T09:05:24;101006.09;;;23.45;41.89
4981;BME280;2507;50.392;7.482;2023-05-20T09:07:49;101010.44;;;23.23;43.51
4981;BME280;2507;50.392;7.482;2023-05-20T09:10:15;101014.38;;;22.90;43.59
4981;BME280;2507;50.392;7.482;2023-05-20T09:12:40;101008.19;;;22.90;46.66
4981;BME280;2507;50.392;7.482;2023-05-20T09:15:06;101006.94;;;22.78;44.96
4981;BME280;2507;50.392;7.482;2023-05-20T09:17:36;101011.94;;;22.42;44.78
4981;BME280;2507;50.392;7.482;2023-05-20T09:20:08;101016.09;;;22.06;46.35
4981;BME280;2507;50.392;7.482;2023-05-20T09:22:34;101015.88;;;22.62;44.54
4981;BME280;2507;50.392;7.482;2023-05-20T09:25:01;101014.19;;;22.30;48.44
4981;BME280;2507;50.392;7.482;2023-05-20T09:27:26;101009.41;;;22.18;47.41
4981;BME280;2507;50.392;7.482;2023-05-20T09:29:51;101014.84;;;22.33;47.16
4981;BME280;2507;50.392;7.482;2023-05-20T09:32:19;101014.16;;;22.69;45.01
4981;BME280;2507;50.392;7.482;2023-05-20T09:34:46;101012.31;;;21.92;48.58
4981;BME280;2507;50.392;7.482;2023-05-20T09:37:13;101014.56;;;22.19;45.80
4981;BME280;2507;50.392;7.482;2023-05-20T09:39:48;101017.81;;;21.75;47.04
4981;BME280;2507;50.392;7.482;2023-05-20T09:42:24;101006.03;;;21.45;49.10
4981;BME280;2507;50.392;7.482;2023-05-20T09:44:52;100999.88;;;21.28;49.28
4981;BME280;2507;50.392;7.482;2023-05-20T09:47:18;100998.19;;;21.36;50.71
4981;BME280;2507;50.392;7.482;2023-05-20T09:49:45;100997.56;;;22.04;46.36
4981;BME280;2507;50.392;7.482;2023-05-20T09:52:12;101008.28;;;22.43;45.51
4981;BME280;2507;50.392;7.482;2023-05-20T09:54:39;101006.06;;;22.85;44.75
4981;BME280;2507;50.392;7.482;2023-05-20T09:57:06;100994.09;;;23.56;44.12
4981;BME280;2507;50.392;7.482;2023-05-20T09:59:32;100995.09;;;23.55;42.39
4981;BME280;2507;50.392;7.482;2023-05-20T10:01:57;100997.66;;;23.85;42.99
4981;BME280;2507;50.392;7.482;2023-05-20T10:04:24;101000.56;;;23.47;43.92
4981;BME280;2507;50.392;7.482;2023-05-20T10:10:22;100992.16;;;22.59;44.96
4981;BME280;2507;50.392;7.482;2023-05-20T10:20:54;101002.38;;;22.48;48.19
4981;BME280;2507;50.392;7.482;2023-05-20T10:23:26;100985.47;;;22.63;46.12
4981;BME280;2507;50.392;7.482;2023-05-20T10:25:53;100981.94;;;23.08;44.47
4981;BME280;2507;50.392;7.482;2023-05-20T10:28:28;100962.00;;;23.10;44.04
4981;BME280;2507;50.392;7.482;2023-05-20T10:30:55;100984.44;;;23.09;45.04
4981;BME280;2507;50.392;7.482;2023-05-20T10:33:20;100971.00;;;22.95;45.71
4981;BME280;2507;50.392;7.482;2023-05-20T10:35:49;100968.50;;;22.93;45.76
4981;BME280;2507;50.392;7.482;2023-05-20T10:38:16;100971.31;;;22.77;45.11
4981;BME280;2507;50.392;7.482;2023-05-20T10:40:41;100981.97;;;22.85;44.24
4981;BME280;2507;50.392;7.482;2023-05-20T10:43:11;100977.34;;;22.71;45.85
4981;BME280;2507;50.392;7.482;2023-05-20T10:45:51;100975.06;;;22.91;45.30
4981;BME280;2507;50.392;7.482;2023-05-20T10:48:23;100990.84;;;23.23;44.26
4981;BME280;2507;50.392;7.482;2023-05-20T10:50:49;100970.91;;;23.25;45.48
4981;BME280;2507;50.392;7.482;2023-05-20T10:53:14;100979.41;;;23.66;44.19
4981;BME280;2507;50.392;7.482;2023-05-20T10:55:47;100980.13;;;23.46;44.99
4981;BME280;2507;50.392;7.482;2023-05-20T10:58:13;100990.63;;;23.10;43.63
4981;BME280;2507;50.392;7.482;2023-05-20T11:00:39;100979.28;;;22.85;44.63
4981;BME280;2507;50.392;7.482;2023-05-20T11:03:05;100978.84;;;22.74;44.96
4981;BME280;2507;50.392;7.482;2023-05-20T11:05:31;100981.13;;;22.85;44.72
4981;BME280;2507;50.392;7.482;2023-05-20T11:08:08;100973.28;;;22.83;44.81
4981;BME280;2507;50.392;7.482;2023-05-20T11:10:34;100978.44;;;22.85;45.55
4981;BME280;2507;50.392;7.482;2023-05-20T11:13:01;100978.63;;;22.83;44.39
4981;BME280;2507;50.392;7.482;2023-05-20T11:15:27;100982.34;;;23.19;44.30
4981;BME280;2507;50.392;7.482;2023-05-20T11:17:55;100973.19;;;23.51;44.26
4981;BME280;2507;50.392;7.482;2023-05-20T11:20:22;100976.81;;;22.98;44.83
4981;BME280;2507;50.392;7.482;2023-05-20T11:22:49;100980.47;;;22.83;45.72
4981;BME280;2507;50.392;7.482;2023-05-20T11:25:16;100971.59;;;23.05;44.48
4981;BME280;2507;50.392;7.482;2023-05-20T11:27:42;100968.25;;;22.80;45.77
4981;BME280;2507;50.392;7.482;2023-05-20T11:30:07;100971.03;;;23.09;44.64
4981;BME280;2507;50.392;7.482;2023-05-20T11:32:33;100964.44;;;23.20;44.78
4981;BME280;2507;50.392;7.482;2023-05-20T11:34:59;100959.69;;;22.62;45.76
4981;BME280;2507;50.392;7.482;2023-05-20T11:37:24;100954.50;;;21.91;47.77
4981;BME280;2507;50.392;7.482;2023-05-20T11:40:11;100958.78;;;21.62;49.12
4981;BME280;2507;50.392;7.482;2023-05-20T11:42:37;100956.59;;;21.57;50.66
4981;BME280;2507;50.392;7.482;2023-05-20T11:45:02;100966.94;;;22.15;48.15
4981;BME280;2507;50.392;7.482;2023-05-20T11:47:28;100957.19;;;22.61;47.15
4981;BME280;2507;50.392;7.482;2023-05-20T11:49:55;100959.72;;;22.54;46.50
4981;BME280;2507;50.392;7.482;2023-05-20T11:52:20;100952.78;;;22.68;45.71
4981;BME280;2507;50.392;7.482;2023-05-20T11:54:51;100955.84;;;22.65;46.93
4981;BME280;2507;50.392;7.482;2023-05-20T11:57:17;100952.50;;;22.63;47.57
4981;BME280;2507;50.392;7.482;2023-05-20T11:59:43;100955.97;;;21.47;49.47
4981;BME280;2507;50.392;7.482;2023-05-20T12:02:08;100945.78;;;21.34;49.64
4981;BME280;2507;50.392;7.482;2023-05-20T12:04:33;100942.03;;;21.76;48.17
4981;BME280;2507;50.392;7.482;2023-05-20T12:06:59;100976.06;;;21.98;47.48
4981;BME280;2507;50.392;7.482;2023-05-20T12:09:25;100955.38;;;21.76;48.12
4981;BME280;2507;50.392;7.482;2023-05-20T12:11:50;100945.22;;;22.18;46.28
4981;BME280;2507;50.392;7.482;2023-05-20T12:14:16;100940.91;;;22.40;46.69
4981;BME280;2507;50.392;7.482;2023-05-20T12:16:41;100957.53;;;22.27;46.34
4981;BME280;2507;50.392;7.482;2023-05-20T12:19:06;100947.16;;;22.32;46.11
4981;BME280;2507;50.392;7.482;2023-05-20T12:21:33;100941.09;;;22.38;46.14
4981;BME280;2507;50.392;7.482;2023-05-20T12:23:58;100931.22;;;22.08;48.47
4981;BME280;2507;50.392;7.482;2023-05-20T12:26:25;100923.72;;;22.34;45.84
4981;BME280;2507;50.392;7.482;2023-05-20T12:28:51;100924.00;;;22.47;45.88
4981;BME280;2507;50.392;7.482;2023-05-20T12:31:17;100919.31;;;22.72;45.35
4981;BME280;2507;50.392;7.482;2023-05-20T12:33:43;100907.53;;;22.81;46.11
4981;BME280;2507;50.392;7.482;2023-05-20T12:36:08;100897.09;;;22.86;45.14
4981;BME280;2507;50.392;7.482;2023-05-20T12:38:34;100904.06;;;22.95;45.45
4981;BME280;2507;50.392;7.482;2023-05-20T12:40:59;100907.44;;;23.26;45.22
4981;BME280;2507;50.392;7.482;2023-05-20T12:43:24;100902.88;;;23.49;45.58
4981;BME280;2507;50.392;7.482;2023-05-20T12:45:50;100903.44;;;23.07;47.51
4981;BME280;2507;50.392;7.482;2023-05-20T12:48:16;100905.38;;;23.36;44.41
4981;BME280;2507;50.392;7.482;2023-05-20T12:50:41;100900.41;;;23.10;45.31
4981;BME280;2507;50.392;7.482;2023-05-20T12:53:07;100896.91;;;23.24;44.20
4981;BME280;2507;50.392;7.482;2023-05-20T12:55:32;100883.84;;;23.29;44.25
4981;BME280;2507;50.392;7.482;2023-05-20T12:57:57;100876.72;;;23.51;43.93
4981;BME280;2507;50.392;7.482;2023-05-20T13:00:23;100871.44;;;23.28;45.16
4981;BME280;2507;50.392;7.482;2023-05-20T13:02:48;100874.94;;;23.14;47.17
4981;BME280;2507;50.392;7.482;2023-05-20T13:05:13;100872.50;;;22.90;45.48
4981;BME280;2507;50.392;7.482;2023-05-20T13:07:39;100873.06;;;23.15;45.29
4981;BME280;2507;50.392;7.482;2023-05-20T13:10:05;100877.38;;;22.64;46.71
4981;BME280;2507;50.392;7.482;2023-05-20T13:12:31;100863.94;;;22.50;47.00
4981;BME280;2507;50.392;7.482;2023-05-20T13:14:56;100869.16;;;22.20;48.07
4981;BME280;2507;50.392;7.482;2023-05-20T13:17:21;100874.13;;;21.93;50.80